KUIL/UIL METAR and TAF weather

Enter ICAO airport designator
Station Type Date Time Source
KUIL METAR 2019/04/25 01:53 UTC NOAA

KUIL 250153Z AUTO 30006KT 10SM CLR 11/03 A3031 RMK AO2 SLP265 T01060028 $


Station Type Date Time Source
KUIL Decoded METAR 2019/04/25 01:53 UTC NOAA

QUILLAYUTE STATE AIRPORT, WA, United States (KUIL) 47-56N 124-34W 54M
Apr 24, 2019 - 09:53 PM EDT / 2019.04.25 0153 UTC
Wind: from the WNW (300 degrees) at 7 MPH (6 KT):0
Visibility: 10 mile(s):0
Sky conditions: clear
Temperature: 51.1 F (10.6 C)
Dew Point: 37.0 F (2.8 C)
Relative Humidity: 58%
Pressure (altimeter): 30.31 in. Hg (1026 hPa)
ob: KUIL 250153Z AUTO 30006KT 10SM CLR 11/03 A3031 RMK AO2 SLP265 T01060028
cycle: 2

Station Type Date Time Source
KUIL TAF UTC NOAA

Error!

Example: see airport list